createdAt,value
2017-06-22T00:01:41.977Z,7.20
2017-06-22T00:04:11.128Z,6.70
2017-06-22T00:06:40.287Z,6.90
2017-06-22T00:09:09.448Z,8.13
2017-06-22T00:11:38.586Z,7.73
2017-06-22T00:14:07.738Z,8.13
2017-06-22T00:16:36.890Z,8.10
2017-06-22T00:19:06.032Z,9.93
2017-06-22T00:21:35.187Z,8.57
2017-06-22T00:24:04.328Z,9.47
2017-06-22T00:26:33.479Z,9.70
2017-06-22T00:29:02.617Z,7.83
2017-06-22T00:31:31.747Z,8.33
2017-06-22T00:36:36.579Z,7.63
2017-06-22T00:39:05.725Z,7.30
2017-06-22T00:41:34.893Z,8.07
2017-06-22T00:44:04.027Z,6.80
2017-06-22T00:46:33.173Z,7.13
2017-06-22T00:49:02.319Z,6.70
2017-06-22T00:51:31.493Z,7.20
2017-06-22T00:54:00.638Z,6.90
2017-06-22T00:56:29.774Z,7.90
2017-06-22T00:58:58.930Z,7.90
2017-06-22T01:01:28.058Z,7.57
2017-06-22T01:03:57.210Z,7.07
2017-06-22T01:06:26.375Z,8.90
2017-06-22T01:08:55.517Z,8.43
2017-06-22T01:11:24.670Z,8.43
2017-06-22T01:13:53.855Z,6.57
2017-06-22T01:16:22.995Z,6.87
2017-06-22T01:18:52.163Z,7.03
2017-06-22T01:21:21.440Z,7.50
2017-06-22T01:23:50.587Z,7.20
2017-06-22T01:26:19.738Z,7.40
2017-06-22T01:28:48.895Z,7.40
2017-06-22T01:31:18.040Z,7.27
2017-06-22T01:33:47.178Z,7.43
2017-06-22T01:36:16.374Z,8.10
2017-06-22T01:38:45.490Z,6.93
2017-06-22T01:41:14.636Z,8.20
2017-06-22T01:43:43.783Z,8.27
2017-06-22T01:46:12.934Z,8.00
2017-06-22T01:48:42.067Z,7.13
2017-06-22T01:51:11.248Z,8.00
2017-06-22T01:53:40.395Z,7.33
2017-06-22T01:56:09.523Z,7.37
2017-06-22T01:58:38.679Z,7.30
2017-06-22T02:01:07.815Z,7.03
2017-06-22T02:03:36.963Z,7.37
2017-06-22T02:06:06.134Z,6.93
2017-06-22T02:08:35.282Z,7.20
2017-06-22T02:11:04.430Z,7.50
2017-06-22T02:13:33.574Z,7.60
2017-06-22T02:16:02.716Z,7.43
2017-06-22T02:18:31.859Z,7.60
2017-06-22T02:21:01.018Z,7.10
2017-06-22T02:23:30.163Z,7.20
2017-06-22T02:25:59.315Z,6.70
2017-06-22T02:28:28.481Z,6.93
2017-06-22T02:30:57.635Z,7.17
2017-06-22T02:33:26.782Z,7.30
2017-06-22T02:35:55.942Z,6.73
2017-06-22T02:38:25.086Z,7.73
2017-06-22T02:40:54.223Z,8.20
2017-06-22T02:43:23.362Z,7.83
2017-06-22T02:45:52.514Z,8.40
2017-06-22T02:48:21.689Z,8.63
2017-06-22T02:50:50.838Z,7.60
2017-06-22T02:53:19.989Z,7.10
2017-06-22T02:55:49.148Z,8.10
2017-06-22T02:58:18.311Z,8.43
2017-06-22T03:00:47.439Z,7.67
2017-06-22T03:03:16.591Z,7.80
2017-06-22T03:05:45.738Z,7.93
2017-06-22T03:08:14.886Z,8.53
2017-06-22T03:10:44.052Z,8.20
2017-06-22T03:13:13.186Z,7.33
2017-06-22T03:15:42.351Z,7.60
2017-06-22T03:18:11.504Z,7.97
2017-06-22T03:20:40.676Z,8.20
2017-06-22T03:23:09.816Z,7.60
2017-06-22T03:25:38.949Z,8.47
2017-06-22T03:28:08.133Z,7.93
2017-06-22T03:30:37.361Z,8.33
2017-06-22T03:33:06.524Z,8.00
2017-06-22T03:35:35.666Z,8.07
2017-06-22T03:38:04.830Z,8.30
2017-06-22T03:40:33.981Z,7.67
2017-06-22T03:43:03.119Z,8.77
2017-06-22T03:45:32.312Z,9.23
2017-06-22T03:48:01.532Z,8.63
2017-06-22T03:50:30.671Z,8.00
2017-06-22T03:52:59.832Z,8.13
2017-06-22T03:55:28.995Z,8.13
2017-06-22T03:57:58.139Z,7.83
2017-06-22T04:00:27.307Z,8.73
2017-06-22T04:02:56.439Z,8.10
2017-06-22T04:05:25.647Z,8.77
2017-06-22T04:07:54.787Z,7.90
2017-06-22T04:10:23.935Z,7.90
2017-06-22T04:12:53.086Z,8.30
2017-06-22T04:15:22.238Z,9.00
2017-06-22T04:17:51.394Z,8.43
2017-06-22T04:20:20.554Z,8.43
2017-06-22T04:22:49.716Z,7.67
2017-06-22T04:25:18.862Z,7.90
2017-06-22T04:27:48.015Z,8.20
2017-06-22T04:30:17.151Z,7.40
2017-06-22T04:32:46.295Z,8.83
2017-06-22T04:35:15.461Z,7.23
2017-06-22T04:37:44.605Z,8.33
2017-06-22T04:40:13.763Z,8.30
2017-06-22T04:42:42.930Z,8.73
2017-06-22T04:45:12.072Z,8.57
2017-06-22T04:47:41.244Z,9.17
2017-06-22T04:50:10.398Z,7.83
2017-06-22T04:52:39.538Z,8.87
2017-06-22T04:55:08.685Z,7.93
2017-06-22T04:57:37.846Z,8.60
2017-06-22T05:00:06.982Z,9.47
2017-06-22T05:02:36.128Z,8.60
2017-06-22T05:05:05.275Z,7.73
2017-06-22T05:07:34.425Z,8.37
2017-06-22T05:10:03.597Z,8.63
2017-06-22T05:12:32.750Z,9.60
2017-06-22T05:15:01.906Z,10.00
2017-06-22T05:17:31.058Z,9.50
2017-06-22T05:20:00.207Z,9.23
2017-06-22T05:22:29.370Z,8.80
2017-06-22T05:24:58.534Z,7.70
2017-06-22T05:27:27.680Z,8.97
2017-06-22T05:29:56.839Z,8.50
2017-06-22T05:32:25.989Z,10.43
2017-06-22T05:34:55.139Z,7.70
2017-06-22T05:37:24.299Z,7.80
2017-06-22T05:39:53.454Z,8.40
2017-06-22T05:42:22.604Z,8.57
2017-06-22T05:44:51.755Z,8.13
2017-06-22T05:47:20.907Z,8.47
2017-06-22T05:49:50.046Z,7.80
2017-06-22T05:52:19.190Z,8.90
2017-06-22T05:54:48.330Z,9.07
2017-06-22T05:57:17.486Z,7.70
2017-06-22T05:59:46.643Z,8.83
2017-06-22T06:02:15.815Z,6.87
2017-06-22T06:04:44.955Z,7.70
2017-06-22T06:07:14.100Z,7.43
2017-06-22T06:09:43.255Z,7.60
2017-06-22T06:12:12.422Z,6.93
2017-06-22T06:14:41.570Z,8.20
2017-06-22T06:17:10.711Z,7.83
2017-06-22T06:19:39.870Z,8.00
2017-06-22T06:22:09.010Z,8.77
2017-06-22T06:24:38.164Z,7.93
2017-06-22T06:27:07.316Z,7.60
2017-06-22T06:29:36.456Z,7.53
2017-06-22T06:32:05.603Z,7.10
2017-06-22T06:34:34.747Z,7.70
2017-06-22T06:37:03.903Z,9.73
2017-06-22T06:39:33.063Z,9.60
2017-06-22T06:42:02.231Z,9.70
2017-06-22T06:44:31.370Z,9.70
2017-06-22T06:47:00.510Z,9.00
2017-06-22T06:49:29.654Z,10.00
2017-06-22T06:51:58.838Z,10.60
2017-06-22T06:54:27.958Z,9.50
2017-06-22T06:56:57.103Z,9.50
2017-06-22T06:59:26.272Z,10.37
2017-06-22T07:01:55.415Z,10.20
2017-06-22T07:04:24.568Z,10.43
2017-06-22T07:06:53.768Z,10.17
2017-06-22T07:09:22.924Z,11.33
2017-06-22T07:11:52.067Z,10.90
2017-06-22T07:14:21.223Z,9.90
2017-06-22T07:16:50.382Z,10.40
2017-06-22T07:19:19.532Z,9.30
2017-06-22T07:21:48.712Z,11.10
2017-06-22T07:24:17.864Z,10.30
2017-06-22T07:26:47.014Z,10.50
2017-06-22T07:29:16.172Z,11.17
2017-06-22T07:31:45.321Z,11.00
2017-06-22T07:34:14.469Z,10.40
2017-06-22T07:36:43.650Z,10.60
2017-06-22T07:39:12.805Z,12.63
2017-06-22T07:41:41.951Z,11.30
2017-06-22T07:44:11.105Z,12.37
2017-06-22T07:46:40.259Z,12.87
2017-06-22T07:49:09.401Z,12.10
2017-06-22T07:51:38.575Z,11.97
2017-06-22T07:54:07.714Z,12.20
2017-06-22T07:56:36.874Z,13.10
2017-06-22T07:59:06.055Z,12.17
2017-06-22T08:01:35.194Z,12.30
2017-06-22T08:04:04.344Z,13.23
2017-06-22T08:06:33.518Z,12.83
2017-06-22T08:09:02.664Z,13.10
2017-06-22T08:11:31.813Z,13.27
2017-06-22T08:14:00.971Z,13.87
2017-06-22T08:16:30.133Z,13.60
2017-06-22T08:18:59.285Z,13.03
2017-06-22T08:21:28.448Z,13.00
2017-06-22T08:23:57.607Z,13.90
2017-06-22T08:26:26.764Z,13.07
2017-06-22T08:28:55.922Z,12.20
2017-06-22T08:31:25.054Z,13.00
2017-06-22T08:33:54.216Z,14.10
2017-06-22T08:36:23.370Z,12.83
2017-06-22T08:38:52.526Z,11.37
2017-06-22T08:41:21.695Z,13.07
2017-06-22T08:43:50.927Z,12.40
2017-06-22T08:46:20.070Z,13.60
2017-06-22T08:48:49.216Z,12.70
2017-06-22T08:51:18.393Z,13.40
2017-06-22T08:53:47.547Z,13.30
2017-06-22T08:56:16.715Z,12.57
2017-06-22T08:58:45.882Z,12.87
2017-06-22T09:01:15.027Z,12.33
2017-06-22T09:03:44.195Z,14.10
2017-06-22T09:06:13.359Z,13.27
2017-06-22T09:08:42.522Z,12.97
2017-06-22T09:11:11.736Z,13.13
2017-06-22T09:13:40.882Z,12.67
2017-06-22T09:16:10.030Z,14.63
2017-06-22T09:18:39.180Z,13.27
2017-06-22T09:21:08.351Z,14.20
2017-06-22T09:23:37.497Z,14.10
2017-06-22T09:26:06.639Z,13.90
2017-06-22T09:28:35.799Z,11.87
2017-06-22T09:31:04.943Z,13.10
2017-06-22T09:33:34.100Z,13.97
2017-06-22T09:36:03.271Z,14.60
2017-06-22T09:38:32.410Z,13.80
2017-06-22T09:41:01.570Z,14.17
2017-06-22T09:43:30.702Z,13.53
2017-06-22T09:45:59.876Z,13.10
2017-06-22T09:48:29.030Z,14.57
2017-06-22T09:50:58.192Z,14.23
2017-06-22T09:53:27.345Z,13.70
2017-06-22T09:55:56.522Z,13.00
2017-06-22T09:58:25.676Z,13.47
2017-06-22T10:00:54.822Z,13.67
2017-06-22T10:03:23.988Z,14.43
2017-06-22T10:05:53.143Z,14.13
2017-06-22T10:08:22.279Z,13.07
2017-06-22T10:10:51.454Z,13.07
2017-06-22T10:13:20.607Z,13.60
2017-06-22T10:15:49.750Z,14.30
2017-06-22T10:18:18.903Z,14.90
2017-06-22T10:20:48.068Z,13.77
2017-06-22T10:23:17.198Z,12.70
2017-06-22T10:25:46.354Z,13.53
2017-06-22T10:28:15.532Z,13.00
2017-06-22T10:30:44.669Z,12.87
2017-06-22T10:33:13.823Z,14.40
2017-06-22T10:35:42.999Z,13.77
2017-06-22T10:38:12.147Z,13.10
2017-06-22T10:40:41.299Z,13.50
2017-06-22T10:43:10.475Z,14.60
2017-06-22T10:45:39.624Z,12.33
2017-06-22T10:48:08.782Z,12.60
2017-06-22T10:50:37.955Z,12.50
2017-06-22T10:53:07.084Z,14.57
2017-06-22T10:55:36.256Z,13.40
2017-06-22T10:58:05.374Z,13.63
2017-06-22T11:00:34.548Z,13.07
2017-06-22T11:03:03.699Z,13.70
2017-06-22T11:05:32.868Z,13.20
2017-06-22T11:08:02.022Z,10.67
2017-06-22T11:10:31.178Z,13.67
2017-06-22T11:13:00.323Z,13.80
2017-06-22T11:15:29.466Z,14.07
2017-06-22T11:17:58.622Z,13.70
2017-06-22T11:20:27.779Z,13.60
2017-06-22T11:22:56.949Z,13.93
2017-06-22T11:25:26.108Z,12.93
2017-06-22T11:27:55.246Z,12.80
2017-06-22T11:30:24.424Z,14.37
2017-06-22T11:32:53.563Z,13.50
2017-06-22T11:35:22.734Z,12.53
2017-06-22T11:37:51.892Z,15.60
2017-06-22T11:40:21.068Z,15.17
2017-06-22T11:42:50.199Z,14.40
2017-06-22T11:45:19.371Z,15.20
2017-06-22T11:47:48.536Z,13.33
2017-06-22T11:50:17.685Z,14.07
2017-06-22T11:52:46.850Z,13.83
2017-06-22T11:55:15.992Z,13.20
2017-06-22T11:57:45.147Z,14.17
2017-06-22T12:00:14.320Z,13.30
2017-06-22T12:02:43.452Z,15.17
2017-06-22T12:05:12.597Z,14.97
2017-06-22T12:07:41.751Z,15.93
2017-06-22T12:10:10.923Z,11.70
2017-06-22T12:12:40.083Z,12.10
2017-06-22T12:15:09.227Z,12.90
2017-06-22T12:17:38.379Z,11.00
2017-06-22T12:20:07.516Z,10.90
2017-06-22T12:22:36.684Z,11.03
2017-06-22T12:25:05.830Z,9.40
2017-06-22T12:27:34.980Z,9.80
2017-06-22T12:30:04.138Z,9.57
2017-06-22T12:32:33.278Z,10.23
2017-06-22T12:35:02.435Z,9.77
2017-06-22T12:37:31.585Z,10.47
2017-06-22T12:40:00.764Z,11.30
2017-06-22T12:42:29.926Z,12.00
2017-06-22T12:44:59.080Z,11.57
2017-06-22T12:47:28.262Z,11.07
2017-06-22T12:49:57.406Z,11.30
2017-06-22T12:52:26.561Z,11.13
2017-06-22T12:54:55.726Z,11.33
2017-06-22T12:57:24.877Z,10.47
2017-06-22T12:59:54.020Z,12.23
2017-06-22T13:02:23.182Z,11.50
2017-06-22T13:04:52.334Z,12.10
2017-06-22T13:07:21.503Z,12.10
2017-06-22T13:09:50.644Z,13.00
2017-06-22T13:12:19.803Z,12.40
2017-06-22T13:14:48.935Z,13.20
2017-06-22T13:17:18.099Z,14.43
2017-06-22T13:19:47.262Z,13.70
2017-06-22T13:22:16.422Z,13.87
2017-06-22T13:24:45.579Z,12.47
2017-06-22T13:27:14.726Z,14.33
2017-06-22T13:29:43.878Z,14.00
2017-06-22T13:32:13.044Z,12.83
2017-06-22T13:34:42.200Z,12.87
2017-06-22T13:37:11.386Z,13.50
2017-06-22T13:39:40.545Z,13.60
2017-06-22T13:42:09.700Z,13.80
2017-06-22T13:44:38.853Z,13.90
2017-06-22T13:47:07.999Z,12.20
2017-06-22T13:49:37.146Z,13.83
2017-06-22T13:52:06.313Z,13.47
2017-06-22T13:54:35.450Z,12.50
2017-06-22T13:57:04.620Z,13.10
2017-06-22T13:59:33.770Z,13.07
2017-06-22T14:02:02.938Z,13.20
2017-06-22T14:04:32.076Z,11.60
2017-06-22T14:07:01.258Z,10.57
2017-06-22T14:09:30.409Z,11.03
2017-06-22T14:11:59.542Z,11.07
2017-06-22T14:14:28.701Z,9.80
2017-06-22T14:16:57.867Z,10.40
2017-06-22T14:19:27.003Z,10.67
2017-06-22T14:21:56.155Z,9.80
2017-06-22T14:24:25.312Z,9.40
2017-06-22T14:26:54.454Z,10.17
2017-06-22T14:29:23.625Z,8.33
2017-06-22T14:31:52.766Z,8.43
2017-06-22T14:34:21.910Z,9.17
2017-06-22T14:36:51.090Z,9.50
2017-06-22T14:39:20.256Z,9.07
2017-06-22T14:41:49.402Z,10.30
2017-06-22T14:44:18.542Z,8.50
2017-06-22T14:46:47.686Z,8.90
2017-06-22T14:49:16.855Z,9.60
2017-06-22T14:51:46.010Z,8.93
2017-06-22T14:54:15.170Z,9.87
2017-06-22T14:56:44.307Z,9.40
2017-06-22T14:59:13.440Z,9.37
2017-06-22T15:01:42.591Z,8.83
2017-06-22T15:04:11.733Z,8.83
2017-06-22T15:06:40.899Z,8.77
2017-06-22T15:09:10.065Z,8.50
2017-06-22T15:11:39.197Z,9.20
2017-06-22T15:14:08.344Z,8.80
2017-06-22T15:16:37.489Z,8.50
2017-06-22T15:19:06.630Z,8.33
2017-06-22T15:21:36.310Z,8.83
2017-06-22T15:24:05.471Z,8.87
2017-06-22T15:26:34.613Z,8.73
2017-06-22T15:29:03.780Z,9.07
2017-06-22T15:31:32.923Z,8.77
2017-06-22T15:34:02.073Z,8.33
2017-06-22T15:36:31.233Z,9.47
2017-06-22T15:39:00.387Z,9.27
2017-06-22T15:41:29.547Z,9.50
2017-06-22T15:43:58.679Z,9.20
2017-06-22T15:46:27.823Z,9.57
2017-06-22T15:48:56.978Z,10.47
2017-06-22T15:51:26.129Z,9.53
2017-06-22T15:53:55.283Z,9.70
2017-06-22T15:56:24.436Z,9.57
2017-06-22T15:58:53.601Z,10.00
2017-06-22T16:01:22.752Z,11.10
2017-06-22T16:03:51.905Z,10.43
2017-06-22T16:06:21.061Z,11.00
2017-06-22T16:08:50.226Z,9.57
2017-06-22T16:11:19.394Z,10.40
2017-06-22T16:13:48.552Z,9.60
2017-06-22T16:16:17.747Z,9.60
2017-06-22T16:18:46.902Z,9.07
2017-06-22T16:21:16.079Z,9.70
2017-06-22T16:23:45.222Z,9.90
2017-06-22T16:26:14.400Z,9.57
2017-06-22T16:28:43.539Z,8.00
2017-06-22T16:31:12.701Z,8.20
2017-06-22T16:33:41.855Z,9.10
2017-06-22T16:36:11.033Z,8.27
2017-06-22T16:38:41.301Z,8.40
2017-06-22T16:41:10.454Z,8.17
2017-06-22T16:43:39.595Z,7.90
2017-06-22T16:46:08.763Z,8.57
2017-06-22T16:48:37.918Z,9.13
2017-06-22T16:51:07.076Z,9.13
2017-06-22T16:53:36.242Z,14.03
2017-06-22T16:56:05.384Z,8.43
2017-06-22T16:58:34.560Z,7.80
2017-06-22T17:01:03.692Z,8.10
2017-06-22T17:03:32.847Z,7.33
2017-06-22T17:06:02.011Z,8.23
2017-06-22T17:08:31.151Z,7.80
2017-06-22T17:11:00.285Z,8.13
2017-06-22T17:13:29.449Z,7.70
2017-06-22T17:15:58.585Z,8.17
2017-06-22T17:18:27.752Z,8.10
2017-06-22T17:20:56.915Z,7.60
2017-06-22T17:23:26.059Z,8.30
2017-06-22T17:25:55.334Z,7.23
2017-06-22T17:28:24.502Z,7.93
2017-06-22T17:30:53.653Z,8.23
2017-06-22T17:33:22.807Z,8.20
2017-06-22T17:35:51.953Z,7.43
2017-06-22T17:38:21.081Z,7.60
2017-06-22T17:40:50.263Z,8.00
2017-06-22T17:43:19.659Z,8.70
2017-06-22T17:45:48.831Z,8.07
2017-06-22T17:48:17.976Z,8.83
2017-06-22T17:50:47.190Z,8.30
2017-06-22T17:53:16.337Z,8.43
2017-06-22T17:55:45.482Z,9.00
2017-06-22T17:58:14.638Z,9.50
2017-06-22T18:00:43.790Z,7.93
2017-06-22T18:03:13.015Z,8.03
2017-06-22T18:05:42.165Z,8.90
2017-06-22T18:08:11.324Z,8.40
2017-06-22T18:10:40.536Z,8.20
2017-06-22T18:13:09.697Z,8.80
2017-06-22T18:15:38.864Z,9.40
2017-06-22T18:18:07.987Z,7.60
2017-06-22T18:20:37.151Z,8.70
2017-06-22T18:23:06.292Z,9.00
2017-06-22T18:25:35.432Z,9.00
2017-06-22T18:28:04.578Z,9.23
2017-06-22T18:30:33.737Z,8.83
2017-06-22T18:33:02.907Z,8.87
2017-06-22T18:35:32.072Z,8.53
2017-06-22T18:38:01.234Z,9.40
2017-06-22T18:40:30.379Z,8.27
2017-06-22T18:42:59.547Z,8.97
2017-06-22T18:45:28.699Z,9.60
2017-06-22T18:47:57.842Z,9.00
2017-06-22T18:50:26.986Z,9.50
2017-06-22T18:52:56.154Z,10.30
2017-06-22T18:55:25.312Z,10.00
2017-06-22T18:57:54.466Z,9.80
2017-06-22T19:00:23.635Z,10.27
2017-06-22T19:02:52.794Z,9.70
2017-06-22T19:05:21.945Z,10.00
2017-06-22T19:07:51.112Z,9.67
2017-06-22T19:10:20.290Z,9.77
2017-06-22T19:12:49.453Z,9.83
2017-06-22T19:15:18.621Z,9.50
2017-06-22T19:17:47.782Z,10.63
2017-06-22T19:20:16.927Z,10.40
2017-06-22T19:22:46.115Z,10.23
2017-06-22T19:25:15.350Z,10.00
2017-06-22T19:27:44.501Z,10.37
2017-06-22T19:30:13.640Z,11.87
2017-06-22T19:32:42.828Z,10.80
2017-06-22T19:35:11.990Z,10.67
2017-06-22T19:37:41.164Z,10.30
2017-06-22T19:40:10.326Z,10.10
2017-06-22T19:42:39.484Z,10.73
2017-06-22T19:45:08.664Z,10.83
2017-06-22T19:47:37.823Z,10.63
2017-06-22T19:50:06.975Z,10.87
2017-06-22T19:52:36.143Z,11.20
2017-06-22T19:55:05.311Z,12.47
2017-06-22T19:57:34.467Z,12.57
2017-06-22T20:00:03.639Z,11.60
2017-06-22T20:02:32.815Z,11.50
2017-06-22T20:05:01.973Z,11.90
2017-06-22T20:07:31.139Z,11.83
2017-06-22T20:10:00.302Z,11.53
2017-06-22T20:12:29.446Z,11.87
2017-06-22T20:14:58.624Z,11.40
2017-06-22T20:17:27.769Z,10.67
2017-06-22T20:19:56.918Z,10.77
2017-06-22T20:22:26.082Z,11.30
2017-06-22T20:24:55.260Z,11.77
2017-06-22T20:27:24.413Z,11.80
2017-06-22T20:29:53.583Z,11.67
2017-06-22T20:32:22.731Z,11.53
2017-06-22T20:34:52.214Z,12.03
2017-06-22T20:37:21.375Z,12.90
2017-06-22T20:39:50.530Z,11.93
2017-06-22T20:42:19.690Z,11.40
2017-06-22T20:44:48.850Z,11.40
2017-06-22T20:47:18.034Z,10.97
2017-06-22T20:49:47.218Z,13.00
2017-06-22T20:52:16.363Z,11.80
2017-06-22T20:54:45.531Z,12.33
2017-06-22T20:57:14.703Z,12.37
2017-06-22T20:59:43.855Z,11.77
2017-06-22T21:02:13.021Z,11.27
2017-06-22T21:04:42.178Z,13.13
2017-06-22T21:07:11.335Z,11.90
2017-06-22T21:09:40.512Z,12.00
2017-06-22T21:12:09.688Z,12.10
2017-06-22T21:14:38.846Z,11.00
2017-06-22T21:17:08.006Z,11.23
2017-06-22T21:19:37.156Z,13.13
2017-06-22T21:22:06.329Z,12.90
2017-06-22T21:24:35.475Z,12.43
2017-06-22T21:27:04.640Z,12.10
2017-06-22T21:29:33.797Z,12.53
2017-06-22T21:32:02.952Z,11.80
2017-06-22T21:34:32.119Z,12.90
2017-06-22T21:37:01.284Z,12.47
2017-06-22T21:39:30.451Z,11.43
2017-06-22T21:41:59.619Z,12.33
2017-06-22T21:44:28.782Z,12.43
2017-06-22T21:46:57.946Z,13.13
2017-06-22T21:49:27.094Z,13.47
2017-06-22T21:51:56.254Z,12.57
2017-06-22T21:54:25.417Z,11.80
2017-06-22T21:56:54.568Z,11.33
2017-06-22T21:59:23.707Z,11.80
2017-06-22T22:01:52.887Z,12.50
2017-06-22T22:04:22.046Z,12.83
2017-06-22T22:06:51.199Z,11.90
2017-06-22T22:09:20.367Z,11.90
2017-06-22T22:11:49.540Z,11.13
2017-06-22T22:14:18.684Z,10.80
2017-06-22T22:16:47.866Z,10.97
2017-06-22T22:19:17.018Z,10.87
2017-06-22T22:21:46.179Z,12.27
2017-06-22T22:24:15.356Z,12.20
2017-06-22T22:26:44.498Z,12.27
2017-06-22T22:29:13.644Z,12.80
2017-06-22T22:31:42.805Z,12.70
2017-06-22T22:34:11.959Z,11.80
2017-06-22T22:36:41.121Z,13.43
2017-06-22T22:39:10.295Z,13.23
2017-06-22T22:41:39.445Z,13.70
2017-06-22T22:44:08.610Z,14.67
2017-06-22T22:46:37.779Z,13.77
2017-06-22T22:49:06.919Z,13.00
2017-06-22T22:51:36.088Z,13.27
2017-06-22T22:54:05.230Z,13.00
2017-06-22T22:56:34.392Z,13.47
2017-06-22T22:59:03.545Z,12.33
2017-06-22T23:01:32.704Z,13.20
2017-06-22T23:04:01.892Z,12.40
2017-06-22T23:06:31.072Z,15.20
2017-06-22T23:09:00.233Z,12.20
2017-06-22T23:11:29.375Z,11.50
2017-06-22T23:13:58.542Z,10.57
2017-06-22T23:16:27.683Z,9.80
2017-06-22T23:18:56.846Z,9.87
2017-06-22T23:21:26.003Z,8.47
2017-06-22T23:23:55.143Z,9.50
2017-06-22T23:26:24.322Z,8.77
2017-06-22T23:28:53.468Z,10.50
2017-06-22T23:31:22.618Z,10.00
2017-06-22T23:33:51.810Z,8.33
2017-06-22T23:36:21.008Z,9.07
2017-06-22T23:38:50.160Z,9.20
2017-06-22T23:41:19.327Z,9.87
2017-06-22T23:43:48.465Z,9.33
2017-06-22T23:46:17.652Z,8.93
2017-06-22T23:48:46.795Z,9.03
2017-06-22T23:51:15.978Z,8.80
2017-06-22T23:53:45.120Z,8.67
2017-06-22T23:56:14.264Z,8.87
2017-06-22T23:58:43.410Z,10.33
